createdAt,value
2019-04-25T00:00:15.142Z,11.1
2019-04-25T00:03:15.481Z,11.0
2019-04-25T00:06:15.381Z,11.1
2019-04-25T00:09:15.228Z,11.1
2019-04-25T00:12:15.193Z,11.0
2019-04-25T00:15:15.070Z,11.0
2019-04-25T00:18:15.144Z,10.9
2019-04-25T00:21:15.015Z,10.9
2019-04-25T00:24:15.354Z,10.8
2019-04-25T00:27:14.837Z,10.8
2019-04-25T00:30:15.183Z,10.7
2019-04-25T00:33:15.624Z,10.7
2019-04-25T00:36:15.722Z,10.7
2019-04-25T00:39:15.021Z,10.7
2019-04-25T00:42:15.135Z,10.7
2019-04-25T00:45:15.132Z,10.8
2019-04-25T00:48:14.968Z,10.8
2019-04-25T00:51:14.957Z,10.9
2019-04-25T00:54:15.034Z,10.9
2019-04-25T00:57:15.535Z,10.9
2019-04-25T01:00:15.363Z,10.9
2019-04-25T01:03:15.643Z,10.8
2019-04-25T01:06:15.138Z,10.8
2019-04-25T01:09:15.083Z,10.7
2019-04-25T01:12:15.516Z,10.7
2019-04-25T01:15:15.584Z,10.7
2019-04-25T01:18:15.790Z,10.6
2019-04-25T01:21:15.726Z,10.6
2019-04-25T01:24:15.716Z,10.5
2019-04-25T01:27:15.334Z,10.5
2019-04-25T01:30:15.643Z,10.6
2019-04-25T01:33:15.180Z,10.6
2019-04-25T01:36:15.542Z,10.6
2019-04-25T01:39:15.484Z,10.7
2019-04-25T01:42:15.589Z,10.7
2019-04-25T01:45:15.140Z,10.7
2019-04-25T01:48:15.386Z,10.6
2019-04-25T01:51:15.822Z,10.6
2019-04-25T01:54:15.190Z,10.4
2019-04-25T01:57:15.143Z,10.4
2019-04-25T02:00:15.204Z,10.5
2019-04-25T02:03:15.217Z,10.5
2019-04-25T02:06:15.757Z,10.4
2019-04-25T02:09:15.074Z,10.3
2019-04-25T02:12:15.605Z,10.4
2019-04-25T02:15:15.617Z,10.4
2019-04-25T02:18:15.081Z,10.3
2019-04-25T02:21:15.522Z,10.2
2019-04-25T02:24:15.002Z,10.2
2019-04-25T02:27:15.333Z,10.3
2019-04-25T02:30:15.804Z,10.3
2019-04-25T02:33:15.359Z,10.3
2019-04-25T02:36:15.835Z,10.2
2019-04-25T02:39:15.299Z,10.3
2019-04-25T02:42:16.879Z,10.3
2019-04-25T02:45:16.615Z,10.3
2019-04-25T02:48:15.431Z,10.3
2019-04-25T02:51:15.496Z,10.4
2019-04-25T02:54:15.616Z,10.4
2019-04-25T02:57:15.101Z,10.4
2019-04-25T03:00:15.612Z,10.3
2019-04-25T03:03:15.825Z,10.3
2019-04-25T03:06:15.426Z,10.3
2019-04-25T03:09:15.770Z,10.3
2019-04-25T03:12:29.188Z,10.3
2019-04-25T03:15:15.291Z,10.3
2019-04-25T03:18:15.743Z,10.3
2019-04-25T03:21:17.453Z,10.3
2019-04-25T03:24:16.706Z,10.3
2019-04-25T03:27:15.309Z,10.3
2019-04-25T03:30:17.720Z,10.4
2019-04-25T03:33:19.614Z,10.4
2019-04-25T03:36:16.995Z,10.3
2019-04-25T03:39:16.534Z,10.3
2019-04-25T03:42:15.813Z,10.3
2019-04-25T03:45:15.407Z,10.3
2019-04-25T03:48:16.054Z,10.3
2019-04-25T03:51:15.834Z,10.4
2019-04-25T03:54:15.507Z,10.4
2019-04-25T03:57:15.099Z,10.4
2019-04-25T04:00:15.536Z,10.4
2019-04-25T04:03:15.248Z,10.4
2019-04-25T04:06:15.850Z,10.4
2019-04-25T04:09:15.317Z,10.4
2019-04-25T04:12:15.735Z,10.4
2019-04-25T04:15:15.967Z,10.3
2019-04-25T04:18:17.273Z,10.3
2019-04-25T04:21:16.205Z,10.4
2019-04-25T04:24:16.109Z,10.4
2019-04-25T04:27:16.666Z,10.5
2019-04-25T04:30:15.384Z,10.5
2019-04-25T04:33:25.747Z,10.5
2019-04-25T04:36:17.784Z,10.5
2019-04-25T04:39:16.825Z,10.5
2019-04-25T04:42:15.984Z,10.6
2019-04-25T04:45:16.557Z,10.8
2019-04-25T04:48:15.585Z,11.0
2019-04-25T04:51:15.776Z,11.2
2019-04-25T04:54:15.657Z,11.5
2019-04-25T04:57:23.276Z,11.8
2019-04-25T05:00:15.618Z,12.2
2019-04-25T05:03:15.781Z,12.6
2019-04-25T05:06:16.173Z,13.0
2019-04-25T05:09:16.456Z,13.5
2019-04-25T05:12:16.201Z,14.3
2019-04-25T05:15:16.900Z,15.1
2019-04-25T05:18:25.406Z,15.9
2019-04-25T05:21:15.787Z,16.6
2019-04-25T05:24:16.189Z,17.4
2019-04-25T05:27:24.549Z,18.1
2019-04-25T05:30:16.603Z,18.4
2019-04-25T05:33:18.635Z,18.9
2019-04-25T05:36:17.204Z,18.8
2019-04-25T05:39:17.339Z,18.0
2019-04-25T05:42:16.307Z,17.0
2019-04-25T05:45:17.294Z,16.3
2019-04-25T05:48:16.067Z,15.8
2019-04-25T05:51:15.874Z,15.4
2019-04-25T05:54:16.492Z,15.7
2019-04-25T05:57:16.530Z,16.9
2019-04-25T06:00:16.656Z,18.4
2019-04-25T06:03:15.397Z,19.9
2019-04-25T06:06:15.113Z,20.8
2019-04-25T06:09:15.762Z,21.3
2019-04-25T06:12:15.377Z,21.6
2019-04-25T06:15:15.402Z,22.0
2019-04-25T06:18:15.842Z,21.7
2019-04-25T06:21:15.794Z,21.6
2019-04-25T06:24:15.421Z,22.0
2019-04-25T06:27:15.234Z,23.1
2019-04-25T06:30:15.888Z,24.4
2019-04-25T06:33:15.759Z,26.0
2019-04-25T06:36:17.242Z,27.3
2019-04-25T06:39:15.786Z,27.8
2019-04-25T06:42:15.488Z,28.4
2019-04-25T06:45:15.927Z,29.3
2019-04-25T06:48:15.673Z,30.3
2019-04-25T06:51:15.604Z,31.5
2019-04-25T06:54:15.642Z,32.8
2019-04-25T06:57:15.032Z,33.6
2019-04-25T07:00:15.528Z,34.5
2019-04-25T07:03:15.755Z,35.6
2019-04-25T07:06:15.998Z,36.2
2019-04-25T07:09:15.026Z,36.8
2019-04-25T07:12:15.951Z,37.3
2019-04-25T07:15:15.151Z,37.6
2019-04-25T07:18:15.006Z,38.0
2019-04-25T07:21:15.625Z,38.8
2019-04-25T07:24:17.513Z,38.0
2019-04-25T07:27:15.718Z,35.6
2019-04-25T07:30:26.851Z,33.3
2019-04-25T07:33:15.248Z,31.4
2019-04-25T07:36:15.603Z,29.3
2019-04-25T07:39:15.362Z,27.7
2019-04-25T07:42:15.719Z,26.9
2019-04-25T07:45:15.452Z,26.9
2019-04-25T07:48:15.267Z,27.2
2019-04-25T07:51:16.512Z,27.8
2019-04-25T07:54:15.730Z,28.0
2019-04-25T07:57:15.444Z,28.3
2019-04-25T08:00:15.664Z,28.8
2019-04-25T08:03:15.416Z,29.3
2019-04-25T08:06:15.078Z,29.1
2019-04-25T08:09:15.768Z,29.4
2019-04-25T08:12:15.032Z,29.1
2019-04-25T08:15:15.771Z,28.6
2019-04-25T08:18:15.024Z,28.5
2019-04-25T08:21:15.432Z,28.7
2019-04-25T08:24:15.521Z,29.1
2019-04-25T08:27:15.090Z,29.6
2019-04-25T08:30:15.276Z,30.2
2019-04-25T08:33:15.504Z,30.9
2019-04-25T08:36:15.626Z,31.5
2019-04-25T08:39:15.403Z,31.5
2019-04-25T08:42:15.197Z,31.0
2019-04-25T08:45:15.005Z,30.4
2019-04-25T08:48:15.796Z,30.0
2019-04-25T08:51:15.342Z,29.0
2019-04-25T08:54:15.116Z,27.7
2019-04-25T08:57:15.074Z,26.6
2019-04-25T09:00:15.710Z,26.0
2019-04-25T09:03:15.881Z,25.8
2019-04-25T09:06:15.107Z,25.8
2019-04-25T09:09:15.924Z,25.8
2019-04-25T09:12:15.867Z,26.8
2019-04-25T09:15:15.436Z,27.5
2019-04-25T09:18:15.274Z,28.0
2019-04-25T09:21:15.861Z,28.0
2019-04-25T09:24:15.633Z,27.8
2019-04-25T09:27:15.341Z,28.1
2019-04-25T09:30:14.926Z,28.1
2019-04-25T09:33:15.414Z,28.0
2019-04-25T09:36:15.176Z,28.3
2019-04-25T09:39:14.999Z,29.0
2019-04-25T09:42:15.580Z,30.0
2019-04-25T09:45:15.549Z,30.6
2019-04-25T09:48:15.887Z,31.2
2019-04-25T09:51:15.729Z,31.4
2019-04-25T09:54:15.463Z,31.4
2019-04-25T09:57:14.927Z,31.5
2019-04-25T10:00:15.294Z,31.8
2019-04-25T10:03:15.182Z,32.4
2019-04-25T10:06:15.743Z,32.8
2019-04-25T10:09:15.734Z,33.1
2019-04-25T10:12:15.730Z,32.6
2019-04-25T10:15:15.357Z,31.8
2019-04-25T10:18:15.158Z,31.1
2019-04-25T10:21:15.838Z,31.1
2019-04-25T10:24:15.150Z,30.3
2019-04-25T10:27:15.912Z,29.7
2019-04-25T10:30:19.856Z,28.7
2019-04-25T10:33:15.387Z,27.7
2019-04-25T10:36:15.397Z,27.0
2019-04-25T10:39:15.021Z,27.5
2019-04-25T10:42:15.374Z,27.3
2019-04-25T10:45:23.297Z,27.3
2019-04-25T10:48:15.301Z,27.5
2019-04-25T10:51:15.003Z,28.2
2019-04-25T10:54:15.545Z,29.0
2019-04-25T10:57:15.242Z,29.1
2019-04-25T11:00:15.086Z,28.9
2019-04-25T11:03:15.825Z,28.8
2019-04-25T11:06:15.394Z,28.6
2019-04-25T11:09:15.229Z,28.6
2019-04-25T11:12:15.099Z,28.7
2019-04-25T11:15:15.445Z,28.9
2019-04-25T11:18:15.290Z,29.2
2019-04-25T11:21:15.000Z,29.8
2019-04-25T11:24:15.549Z,30.8
2019-04-25T11:27:14.924Z,31.2
2019-04-25T11:30:15.469Z,31.9
2019-04-25T11:33:14.997Z,32.8
2019-04-25T11:36:15.523Z,32.8
2019-04-25T11:39:15.100Z,31.7
2019-04-25T11:42:15.554Z,30.5
2019-04-25T11:45:15.348Z,29.6
2019-04-25T11:48:14.985Z,29.2
2019-04-25T11:51:15.563Z,28.6
2019-04-25T11:54:15.167Z,28.2
2019-04-25T11:57:15.929Z,28.0
2019-04-25T12:00:21.905Z,27.5
2019-04-25T12:03:15.791Z,27.1
2019-04-25T12:06:15.677Z,27.0
2019-04-25T12:09:15.196Z,26.6
2019-04-25T12:12:15.005Z,26.5
2019-04-25T12:15:15.730Z,26.4
2019-04-25T12:18:15.775Z,26.4
2019-04-25T12:21:15.204Z,26.2
2019-04-25T12:24:14.968Z,25.8
2019-04-25T12:27:15.475Z,25.7
2019-04-25T12:30:15.071Z,25.7
2019-04-25T12:33:20.954Z,26.1
2019-04-25T12:36:15.688Z,26.7
2019-04-25T12:39:15.271Z,27.1
2019-04-25T12:42:15.039Z,27.5
2019-04-25T12:45:15.712Z,27.7
2019-04-25T12:48:15.479Z,27.6
2019-04-25T12:51:14.959Z,27.7
2019-04-25T12:54:15.375Z,27.8
2019-04-25T12:57:14.949Z,27.9
2019-04-25T13:00:14.981Z,28.1
2019-04-25T13:03:15.852Z,27.6
2019-04-25T13:06:15.789Z,27.5
2019-04-25T13:09:15.229Z,27.5
2019-04-25T13:12:15.960Z,27.7
2019-04-25T13:15:15.384Z,27.7
2019-04-25T13:18:15.243Z,27.6
2019-04-25T13:21:15.730Z,27.9
2019-04-25T13:24:15.239Z,27.9
2019-04-25T13:27:15.611Z,27.6
2019-04-25T13:30:15.579Z,27.5
2019-04-25T13:33:15.234Z,27.7
2019-04-25T13:36:15.596Z,28.1
2019-04-25T13:39:16.212Z,28.2
2019-04-25T13:42:15.304Z,28.0
2019-04-25T13:45:15.066Z,27.8
2019-04-25T13:48:15.496Z,27.7
2019-04-25T13:51:15.615Z,27.7
2019-04-25T13:54:15.498Z,27.8
2019-04-25T13:57:15.612Z,27.6
2019-04-25T14:00:15.140Z,27.6
2019-04-25T14:03:15.028Z,27.4
2019-04-25T14:06:15.101Z,27.2
2019-04-25T14:09:15.901Z,27.0
2019-04-25T14:12:15.334Z,26.8
2019-04-25T14:15:15.274Z,26.6
2019-04-25T14:18:15.544Z,26.6
2019-04-25T14:21:15.767Z,26.7
2019-04-25T14:24:20.670Z,26.8
2019-04-25T14:27:15.402Z,26.8
2019-04-25T14:30:15.283Z,26.9
2019-04-25T14:33:15.614Z,27.1
2019-04-25T14:36:15.214Z,27.1
2019-04-25T14:39:15.106Z,27.3
2019-04-25T14:42:15.577Z,27.4
2019-04-25T14:45:15.150Z,27.5
2019-04-25T14:48:14.987Z,27.6
2019-04-25T14:51:15.847Z,27.3
2019-04-25T14:54:15.535Z,27.1
2019-04-25T14:57:15.193Z,27.1
2019-04-25T15:00:15.023Z,27.1
2019-04-25T15:03:15.229Z,27.1
2019-04-25T15:06:15.923Z,26.9
2019-04-25T15:09:15.288Z,26.7
2019-04-25T15:12:15.258Z,26.6
2019-04-25T15:15:15.000Z,26.5
2019-04-25T15:18:15.627Z,26.4
2019-04-25T15:21:15.323Z,26.4
2019-04-25T15:24:15.095Z,26.3
2019-04-25T15:27:15.653Z,26.3
2019-04-25T15:30:15.621Z,26.2
2019-04-25T15:33:15.137Z,26.1
2019-04-25T15:36:16.003Z,26.1
2019-04-25T15:39:15.057Z,26.1
2019-04-25T15:42:15.631Z,26.2
2019-04-25T15:45:15.150Z,26.3
2019-04-25T15:48:15.447Z,26.4
2019-04-25T15:51:15.273Z,26.7
2019-04-25T15:54:15.822Z,26.9
2019-04-25T15:57:15.071Z,27.1
2019-04-25T16:00:15.658Z,27.2
2019-04-25T16:03:15.877Z,27.2
2019-04-25T16:06:15.438Z,27.1
2019-04-25T16:09:15.334Z,26.9
2019-04-25T16:12:15.088Z,26.7
2019-04-25T16:15:15.197Z,26.6
2019-04-25T16:18:15.572Z,26.5
2019-04-25T16:21:15.121Z,26.3
2019-04-25T16:24:15.532Z,26.2
2019-04-25T16:27:15.522Z,26.0
2019-04-25T16:30:15.476Z,25.7
2019-04-25T16:33:15.686Z,25.5
2019-04-25T16:36:15.676Z,25.3
2019-04-25T16:39:15.125Z,25.1
2019-04-25T16:42:15.449Z,25.0
2019-04-25T16:45:15.329Z,24.9
2019-04-25T16:48:16.610Z,24.8
2019-04-25T16:51:15.224Z,24.5
2019-04-25T16:54:15.725Z,24.4
2019-04-25T16:57:15.663Z,24.2
2019-04-25T17:00:15.793Z,24.0
2019-04-25T17:03:15.310Z,24.0
2019-04-25T17:06:14.893Z,23.9
2019-04-25T17:09:15.537Z,23.8
2019-04-25T17:12:15.042Z,23.6
2019-04-25T17:15:15.215Z,23.3
2019-04-25T17:18:15.387Z,23.0
2019-04-25T17:21:15.889Z,22.9
2019-04-25T17:24:15.640Z,22.8
2019-04-25T17:27:15.280Z,22.5
2019-04-25T17:30:14.963Z,22.3
2019-04-25T17:33:15.700Z,22.0
2019-04-25T17:36:15.916Z,21.6
2019-04-25T17:39:15.371Z,21.3
2019-04-25T17:42:14.980Z,21.1
2019-04-25T17:45:15.716Z,21.0
2019-04-25T17:48:15.276Z,20.9
2019-04-25T17:51:15.928Z,20.7
2019-04-25T17:54:18.302Z,20.6
2019-04-25T17:57:15.355Z,20.5
2019-04-25T18:00:15.826Z,20.3
2019-04-25T18:03:15.392Z,20.4
2019-04-25T18:06:15.444Z,20.4
2019-04-25T18:09:15.168Z,20.5
2019-04-25T18:12:14.971Z,20.5
2019-04-25T18:15:15.520Z,20.3
2019-04-25T18:18:15.436Z,20.1
2019-04-25T18:21:15.651Z,19.9
2019-04-25T18:24:15.460Z,19.8
2019-04-25T18:27:15.516Z,19.7
2019-04-25T18:30:15.346Z,19.5
2019-04-25T18:33:14.947Z,19.3
2019-04-25T18:36:15.271Z,19.2
2019-04-25T18:39:15.680Z,19.1
2019-04-25T18:42:15.935Z,19.0
2019-04-25T18:45:15.405Z,18.9
2019-04-25T18:48:15.001Z,18.9
2019-04-25T18:51:15.072Z,18.7
2019-04-25T18:54:15.616Z,18.7
2019-04-25T18:57:15.213Z,18.6
2019-04-25T19:00:15.898Z,18.5
2019-04-25T19:03:26.734Z,18.3
2019-04-25T19:06:15.195Z,18.3
2019-04-25T19:09:15.307Z,18.2
2019-04-25T19:12:15.872Z,18.2
2019-04-25T19:15:15.037Z,18.0
2019-04-25T19:18:15.767Z,17.9
2019-04-25T19:21:15.474Z,17.9
2019-04-25T19:24:15.581Z,17.8
2019-04-25T19:27:23.598Z,17.8
2019-04-25T19:30:14.943Z,17.7
2019-04-25T19:33:15.893Z,17.6
2019-04-25T19:36:16.042Z,17.5
2019-04-25T19:39:15.771Z,17.5
2019-04-25T19:45:15.401Z,17.6
2019-04-25T19:48:15.569Z,17.6
2019-04-25T19:51:15.949Z,17.6
2019-04-25T19:54:15.620Z,17.7
2019-04-25T19:57:15.263Z,17.6
2019-04-25T20:00:15.003Z,17.6
2019-04-25T20:03:15.650Z,17.6
2019-04-25T20:06:15.006Z,17.6
2019-04-25T20:09:15.258Z,17.6
2019-04-25T20:12:15.017Z,17.5
2019-04-25T20:15:15.838Z,17.5
2019-04-25T20:18:15.882Z,17.4
2019-04-25T20:21:15.321Z,17.4
2019-04-25T20:24:15.729Z,17.4
2019-04-25T20:27:15.186Z,17.3
2019-04-25T20:30:15.616Z,17.2
2019-04-25T20:33:14.952Z,17.2
2019-04-25T20:36:17.919Z,17.2
2019-04-25T20:39:15.683Z,17.1
2019-04-25T20:42:15.092Z,17.0
2019-04-25T20:45:15.544Z,16.9
2019-04-25T20:48:15.069Z,16.9
2019-04-25T20:51:15.595Z,16.9
2019-04-25T20:54:15.148Z,16.8
2019-04-25T20:57:15.764Z,16.8
2019-04-25T21:00:15.375Z,16.7
2019-04-25T21:03:15.268Z,16.6
2019-04-25T21:06:15.916Z,16.6
2019-04-25T21:09:15.692Z,16.5
2019-04-25T21:12:15.330Z,16.4
2019-04-25T21:15:15.732Z,16.4
2019-04-25T21:18:15.252Z,16.4
2019-04-25T21:21:15.192Z,16.4
2019-04-25T21:24:15.818Z,16.5
2019-04-25T21:27:15.560Z,16.5
2019-04-25T21:30:15.217Z,16.6
2019-04-25T21:33:15.773Z,16.6
2019-04-25T21:36:15.294Z,16.7
2019-04-25T21:39:15.291Z,16.7
2019-04-25T21:42:15.617Z,16.7
2019-04-25T21:45:14.909Z,16.7
2019-04-25T21:48:15.240Z,16.7
2019-04-25T21:51:15.952Z,16.7
2019-04-25T21:54:14.963Z,16.6
2019-04-25T21:57:15.376Z,16.6
2019-04-25T22:00:15.714Z,16.6
2019-04-25T22:03:14.917Z,16.6
2019-04-25T22:06:17.784Z,16.6
2019-04-25T22:09:15.401Z,16.5
2019-04-25T22:12:15.707Z,16.5
2019-04-25T22:15:15.351Z,16.4
2019-04-25T22:18:15.646Z,16.3
2019-04-25T22:21:15.145Z,16.2
2019-04-25T22:24:16.283Z,16.1
2019-04-25T22:27:15.278Z,16.0
2019-04-25T22:30:15.266Z,15.8
2019-04-25T22:33:15.605Z,15.8
2019-04-25T22:36:15.196Z,15.7
2019-04-25T22:39:15.811Z,15.7
2019-04-25T22:42:15.425Z,15.7
2019-04-25T22:45:15.060Z,15.7
2019-04-25T22:48:15.204Z,15.6
2019-04-25T22:51:15.676Z,15.6
2019-04-25T22:54:15.086Z,15.5
2019-04-25T22:57:15.632Z,15.5
2019-04-25T23:00:15.667Z,15.4
2019-04-25T23:03:15.581Z,15.4
2019-04-25T23:06:15.038Z,15.2
2019-04-25T23:09:14.950Z,15.1
2019-04-25T23:12:15.184Z,15.0
2019-04-25T23:15:15.122Z,15.0
2019-04-25T23:18:15.026Z,14.9
2019-04-25T23:21:15.865Z,14.8
2019-04-25T23:24:15.582Z,14.7
2019-04-25T23:27:14.927Z,14.7
2019-04-25T23:30:15.234Z,14.6
2019-04-25T23:33:14.891Z,14.6
2019-04-25T23:36:15.473Z,14.5
2019-04-25T23:39:15.478Z,14.5
2019-04-25T23:42:15.615Z,14.4
2019-04-25T23:45:16.535Z,14.2
2019-04-25T23:48:15.144Z,14.1
2019-04-25T23:51:15.397Z,14.0
2019-04-25T23:54:15.463Z,13.8
2019-04-25T23:57:15.574Z,13.7
